Ship Status Report: callsign NRPK

sailwx.info

Track history (hours):
 
Tides and Currents Weather Stations Pressure Air Temp Water Temp Dewpoint Dewpoint Depression Visibility Wind Speed Wind Dir Waves Ship Positions

Callsign NRPK (name unknown)

Last reported at 2014-Sep-18 22:28 UTC. Time now 2014-Sep-21 04:04 UTC.
Position N 36°58' W 075°46'.

AWS

Date/timePositionNaut miles runAvg speedWind from/ knotsBaromVisibWave heightAir tempDewpointWater temp
2014-Sep-18 22:28N 36°58' W 075°46'1512.5
2014-Sep-18 21:18N 36°58' W 076°04'1013.1
2014-Sep-18 20:33N 37°00' W 076°16'8 5.9
2014-Sep-18 19:07N 36°53' W 076°21'0 0.0
2014-Sep-18 17:27N 36°53' W 076°21'0 0.0
2014-Sep-18 15:23N 36°53' W 076°21'0 0.0
2014-Sep-18 11:20N 36°53' W 076°21'0 0.0
2014-Sep-18 10:33N 36°53' W 076°21'0 0.0
2014-Sep-18 09:05N 36°53' W 076°21'0 0.0
2014-Sep-18 07:20N 36°53' W 076°21'0 0.0
2014-Sep-18 06:32N 36°53' W 076°21'0 0.0
2014-Sep-18 05:17N 36°53' W 076°21'0 0.0
2014-Sep-18 01:12N 36°53' W 076°21'0 0.0
2014-Sep-18 00:24N 36°53' W 076°21'0 0.0
2014-Sep-17 23:14N 36°53' W 076°21'0 0.0
2014-Sep-17 22:21N 36°53' W 076°21'0 0.0
2014-Sep-17 21:29N 36°53' W 076°21'0 0.0
2014-Sep-17 12:06N 36°53' W 076°21'0 0.0
2014-Sep-17 11:15N 36°53' W 076°21'0 0.0
2014-Sep-17 10:24N 36°53' W 076°21'0 0.0
2014-Sep-17 08:20N 36°53' W 076°21'0 0.0
2014-Sep-17 04:21N 36°53' W 076°21'0 0.0
2014-Sep-17 01:14N 36°53' W 076°21'0 0.0
2014-Sep-16 23:06N 36°53' W 076°21'0 0.0
2014-Sep-16 20:23N 36°53' W 076°21'0 0.0
2014-Sep-16 19:32N 36°53' W 076°21'0 0.0
2014-Sep-16 18:26N 36°53' W 076°21'0 0.0
2014-Sep-16 17:06N 36°53' W 076°21'0 0.0
2014-Sep-16 16:30N 36°53' W 076°21'0 0.0
2014-Sep-16 15:24N 36°53' W 076°21'0 0.0
2014-Sep-16 14:11N 36°53' W 076°21'0 0.0
2014-Sep-16 11:33N 36°53' W 076°21'0 0.0
2014-Sep-16 08:18N 36°53' W 076°21'0 0.0
2014-Sep-16 07:14N 36°53' W 076°21'0 0.0
2014-Sep-16 05:20N 36°53' W 076°21'0 0.0
2014-Sep-16 04:15N 36°53' W 076°21'0 0.0
2014-Sep-16 03:11N 36°53' W 076°21'0 0.0
2014-Sep-16 02:27N 36°53' W 076°21'0 0.0
2014-Sep-16 01:32N 36°53' W 076°21'0 0.0
2014-Sep-15 23:30N 36°53' W 076°21'0 0.0
2014-Sep-15 20:33N 36°53' W 076°21'0 0.0
2014-Sep-15 17:28N 36°53' W 076°21'8 9.3
2014-Sep-15 16:33N 37°00' W 076°16'1313.0
2014-Sep-15 15:32N 36°57' W 076°00'17311.5
2014-Sep-15 00:31N 39°27' W 074°09'1313.4
2014-Sep-14 23:33N 39°37' W 073°59'1312.8
2014-Sep-14 22:33N 39°45' W 073°46'0 0.4
2014-Sep-14 21:30N 39°46' W 073°46'0 0.0
2014-Sep-14 20:21N 39°46' W 073°46'4 4.9
2014-Sep-14 19:33N 39°46' W 073°51'6 6.4
2014-Sep-14 18:33N 39°45' W 073°59'0 0.0
2014-Sep-14 17:33N 39°45' W 073°59'2 2.2
2014-Sep-14 16:33N 39°48' W 073°60'1312.4
2014-Sep-14 15:31N 40°01' W 074°01'5 2.2
2014-Sep-14 13:12N 40°06' W 074°01'0 0.0
2014-Sep-14 12:33N 40°06' W 074°01'11 3.3
2014-Sep-14 09:21N 39°56' W 073°54'8 7.9
2014-Sep-14 08:20N 39°48' W 073°55'6 8.2
2014-Sep-14 07:33N 39°42' W 073°56'8 8.1
2014-Sep-14 06:33N 39°35' W 074°02'7 6.3
2014-Sep-14 05:32N 39°30' W 074°07'6 5.5
2014-Sep-14 04:30N 39°25' W 074°10'  
2014-Sep-11 21:19N 37°00' W 075°48'1213.5
2014-Sep-11 20:28N 37°01' W 076°02'1413.5
2014-Sep-11 19:25N 37°11' W 076°15'18 1.2
2014-Sep-11 05:20N 37°18' W 076°35'  
Track history (hours):
 
Tides and Currents Weather Stations Pressure Air Temp Water Temp Dewpoint Dewpoint Depression Visibility Wind Speed Wind Dir Waves Ship Positions

Callsign NRPK (name unknown)

Last reported at 2014-Sep-18 22:28 UTC. Time now 2014-Sep-21 04:04 UTC.
Position N 36°58' W 075°46'.

AWS

Date/timePositionNaut miles runAvg speedWind from/ knotsBaromVisibWave heightAir tempDewpointWater temp
2014-Sep-18 22:28N 36°58' W 075°46'1512.5
2014-Sep-18 21:18N 36°58' W 076°04'1013.1
2014-Sep-18 20:33N 37°00' W 076°16'8 5.9
2014-Sep-18 19:07N 36°53' W 076°21'0 0.0
2014-Sep-18 17:27N 36°53' W 076°21'0 0.0
2014-Sep-18 15:23N 36°53' W 076°21'0 0.0
2014-Sep-18 11:20N 36°53' W 076°21'0 0.0
2014-Sep-18 10:33N 36°53' W 076°21'0 0.0
2014-Sep-18 09:05N 36°53' W 076°21'0 0.0
2014-Sep-18 07:20N 36°53' W 076°21'0 0.0
2014-Sep-18 06:32N 36°53' W 076°21'0 0.0
2014-Sep-18 05:17N 36°53' W 076°21'0 0.0
2014-Sep-18 01:12N 36°53' W 076°21'0 0.0
2014-Sep-18 00:24N 36°53' W 076°21'0 0.0
2014-Sep-17 23:14N 36°53' W 076°21'0 0.0
2014-Sep-17 22:21N 36°53' W 076°21'0 0.0
2014-Sep-17 21:29N 36°53' W 076°21'0 0.0
2014-Sep-17 12:06N 36°53' W 076°21'0 0.0
2014-Sep-17 11:15N 36°53' W 076°21'0 0.0
2014-Sep-17 10:24N 36°53' W 076°21'0 0.0
2014-Sep-17 08:20N 36°53' W 076°21'0 0.0
2014-Sep-17 04:21N 36°53' W 076°21'0 0.0
2014-Sep-17 01:14N 36°53' W 076°21'0 0.0
2014-Sep-16 23:06N 36°53' W 076°21'0 0.0
2014-Sep-16 20:23N 36°53' W 076°21'0 0.0
2014-Sep-16 19:32N 36°53' W 076°21'0 0.0
2014-Sep-16 18:26N 36°53' W 076°21'0 0.0
2014-Sep-16 17:06N 36°53' W 076°21'0 0.0
2014-Sep-16 16:30N 36°53' W 076°21'0 0.0
2014-Sep-16 15:24N 36°53' W 076°21'0 0.0
2014-Sep-16 14:11N 36°53' W 076°21'0 0.0
2014-Sep-16 11:33N 36°53' W 076°21'0 0.0
2014-Sep-16 08:18N 36°53' W 076°21'0 0.0
2014-Sep-16 07:14N 36°53' W 076°21'0 0.0
2014-Sep-16 05:20N 36°53' W 076°21'0 0.0
2014-Sep-16 04:15N 36°53' W 076°21'0 0.0
2014-Sep-16 03:11N 36°53' W 076°21'0 0.0
2014-Sep-16 02:27N 36°53' W 076°21'0 0.0
2014-Sep-16 01:32N 36°53' W 076°21'0 0.0
2014-Sep-15 23:30N 36°53' W 076°21'0 0.0
2014-Sep-15 20:33N 36°53' W 076°21'0 0.0
2014-Sep-15 17:28N 36°53' W 076°21'8 9.3
2014-Sep-15 16:33N 37°00' W 076°16'1313.0
2014-Sep-15 15:32N 36°57' W 076°00'17311.5
2014-Sep-15 00:31N 39°27' W 074°09'1313.4
2014-Sep-14 23:33N 39°37' W 073°59'1312.8
2014-Sep-14 22:33N 39°45' W 073°46'0 0.4
2014-Sep-14 21:30N 39°46' W 073°46'0 0.0
2014-Sep-14 20:21N 39°46' W 073°46'4 4.9
2014-Sep-14 19:33N 39°46' W 073°51'6 6.4
2014-Sep-14 18:33N 39°45' W 073°59'0 0.0
2014-Sep-14 17:33N 39°45' W 073°59'2 2.2
2014-Sep-14 16:33N 39°48' W 073°60'1312.4
2014-Sep-14 15:31N 40°01' W 074°01'5 2.2
2014-Sep-14 13:12N 40°06' W 074°01'0 0.0
2014-Sep-14 12:33N 40°06' W 074°01'11 3.3
2014-Sep-14 09:21N 39°56' W 073°54'8 7.9
2014-Sep-14 08:20N 39°48' W 073°55'6 8.2
2014-Sep-14 07:33N 39°42' W 073°56'8 8.1
2014-Sep-14 06:33N 39°35' W 074°02'7 6.3
2014-Sep-14 05:32N 39°30' W 074°07'6 5.5
2014-Sep-14 04:30N 39°25' W 074°10'  
2014-Sep-11 21:19N 37°00' W 075°48'1213.5
2014-Sep-11 20:28N 37°01' W 076°02'1413.5
2014-Sep-11 19:25N 37°11' W 076°15'18 1.2
2014-Sep-11 05:20N 37°18' W 076°35'  

Dump ship's entire track history